createdAt,value
2022-07-30T00:00:43.616Z,24.20
2022-07-30T00:05:46.972Z,24.20
2022-07-30T00:10:50.244Z,24.20
2022-07-30T00:15:54.770Z,24.20
2022-07-30T00:20:57.865Z,24.20
2022-07-30T00:26:01.729Z,24.20
2022-07-30T00:31:06.287Z,24.20
2022-07-30T00:36:09.423Z,24.20
2022-07-30T00:41:12.673Z,24.20
2022-07-30T00:46:17.756Z,24.10
2022-07-30T00:51:20.899Z,24.10
2022-07-30T00:56:23.977Z,24.10
2022-07-30T01:01:28.575Z,24.10
2022-07-30T01:06:31.820Z,24.10
2022-07-30T01:11:38.661Z,24.10
2022-07-30T01:16:44.241Z,24.10
2022-07-30T01:22:01.456Z,24.10
2022-07-30T01:27:07.607Z,24.10
2022-07-30T01:32:13.125Z,24.10
2022-07-30T01:37:17.904Z,24.10
2022-07-30T01:42:27.769Z,24.10
2022-07-30T01:47:32.907Z,24.00
2022-07-30T01:52:38.888Z,24.00
2022-07-30T01:57:44.807Z,24.00
2022-07-30T02:02:48.014Z,24.00
2022-07-30T02:07:57.289Z,24.00
2022-07-30T02:13:04.376Z,24.00
2022-07-30T02:18:14.665Z,24.00
2022-07-30T02:23:19.418Z,24.00
2022-07-30T02:28:25.519Z,24.00
2022-07-30T02:33:31.252Z,24.00
2022-07-30T02:38:35.610Z,24.00
2022-07-30T02:43:42.421Z,24.00
2022-07-30T02:48:48.015Z,24.00
2022-07-30T02:53:52.870Z,24.00
2022-07-30T02:59:00.000Z,24.00
2022-07-30T03:04:03.988Z,24.00
2022-07-30T03:09:08.340Z,24.00
2022-07-30T03:14:13.160Z,24.00
2022-07-30T03:19:18.415Z,24.00
2022-07-30T03:24:24.623Z,24.00
2022-07-30T03:29:29.626Z,24.00
2022-07-30T03:34:34.417Z,24.00
2022-07-30T03:39:38.732Z,24.00
2022-07-30T03:44:45.791Z,24.00
2022-07-30T03:49:48.927Z,24.00
2022-07-30T03:54:52.805Z,24.00
2022-07-30T03:59:57.396Z,24.00
2022-07-30T04:05:00.498Z,24.00
2022-07-30T04:10:03.697Z,24.00
2022-07-30T04:16:05.664Z,24.00
2022-07-30T04:20:37.083Z,24.00
2022-07-30T04:25:41.375Z,24.00
2022-07-30T04:30:47.111Z,24.00
2022-07-30T04:35:52.388Z,24.00
2022-07-30T04:40:55.643Z,24.00
2022-07-30T04:46:00.072Z,24.00
2022-07-30T04:51:09.006Z,24.00
2022-07-30T04:56:12.710Z,24.00
2022-07-30T05:01:23.197Z,24.00
2022-07-30T05:06:39.633Z,24.00
2022-07-30T05:11:42.667Z,24.00
2022-07-30T05:16:47.180Z,24.00
2022-07-30T05:21:50.277Z,24.10
2022-07-30T05:26:53.326Z,24.20
2022-07-30T05:31:59.073Z,24.30
2022-07-30T05:37:06.219Z,24.40
2022-07-30T05:42:12.962Z,24.50
2022-07-30T05:47:18.208Z,24.50
2022-07-30T05:52:21.316Z,24.50
2022-07-30T05:57:24.402Z,24.40
2022-07-30T06:02:28.799Z,24.30
2022-07-30T06:07:32.087Z,24.40
2022-07-30T06:12:35.243Z,24.40
2022-07-30T06:17:44.495Z,24.60
2022-07-30T06:22:54.182Z,24.70
2022-07-30T06:27:57.194Z,24.80
2022-07-30T06:33:01.577Z,24.90
2022-07-30T06:38:07.251Z,25.00
2022-07-30T06:43:10.914Z,25.00
2022-07-30T06:48:15.379Z,25.10
2022-07-30T06:53:18.434Z,25.20
2022-07-30T06:58:25.650Z,25.20
2022-07-30T07:03:39.778Z,25.10
2022-07-30T07:08:43.557Z,25.10
2022-07-30T07:13:46.609Z,25.10
2022-07-30T07:18:51.009Z,25.10
2022-07-30T07:23:54.115Z,25.10
2022-07-30T07:28:57.137Z,25.20
2022-07-30T07:34:01.570Z,25.30
2022-07-30T07:39:09.664Z,25.40
2022-07-30T07:44:16.010Z,25.40
2022-07-30T07:49:20.565Z,25.60
2022-07-30T07:54:23.620Z,25.60
2022-07-30T07:59:36.235Z,25.60
2022-07-30T08:04:45.348Z,25.70
2022-07-30T08:09:48.484Z,25.70
2022-07-30T08:14:51.709Z,25.70
2022-07-30T08:19:59.857Z,25.70
2022-07-30T08:25:03.917Z,25.80
2022-07-30T08:30:08.724Z,25.80
2022-07-30T08:35:13.551Z,25.90
2022-07-30T08:40:18.951Z,25.90
2022-07-30T08:45:34.798Z,25.90
2022-07-30T08:50:40.278Z,26.00
2022-07-30T08:55:43.995Z,26.00
2022-07-30T09:00:47.130Z,25.90
2022-07-30T09:05:51.579Z,26.00
2022-07-30T09:10:54.733Z,26.00
2022-07-30T09:15:58.920Z,26.10
2022-07-30T09:21:15.986Z,26.10
2022-07-30T09:26:19.139Z,26.10
2022-07-30T09:31:23.700Z,26.10
2022-07-30T09:36:32.949Z,26.10
2022-07-30T09:41:39.556Z,26.10
2022-07-30T09:46:45.398Z,26.10
2022-07-30T09:51:55.546Z,26.10
2022-07-30T09:57:23.136Z,26.10
2022-07-30T10:02:32.917Z,26.20
2022-07-30T10:07:42.791Z,26.10
2022-07-30T10:12:49.922Z,26.20
2022-07-30T10:17:53.122Z,26.20
2022-07-30T10:22:57.722Z,26.10
2022-07-30T10:28:01.149Z,26.10
2022-07-30T10:33:08.695Z,26.10
2022-07-30T10:38:39.245Z,26.20
2022-07-30T10:44:06.163Z,26.20
2022-07-30T10:49:12.512Z,26.20
2022-07-30T10:54:44.518Z,26.20
2022-07-30T11:00:14.272Z,26.20
2022-07-30T11:05:27.277Z,26.20
2022-07-30T11:10:48.610Z,26.20
2022-07-30T11:15:58.321Z,26.20
2022-07-30T11:21:22.716Z,26.10
2022-07-30T11:26:52.621Z,26.00
2022-07-30T11:31:58.546Z,26.00
2022-07-30T11:37:22.068Z,26.00
2022-07-30T11:42:39.009Z,26.00
2022-07-30T11:47:43.003Z,25.90
2022-07-30T11:52:49.571Z,25.90
2022-07-30T11:57:54.351Z,26.00
2022-07-30T12:02:59.863Z,26.00
2022-07-30T12:08:06.152Z,26.10
2022-07-30T12:13:12.264Z,26.10
2022-07-30T12:18:26.654Z,26.10
2022-07-30T12:23:31.550Z,26.10
2022-07-30T12:28:37.543Z,26.20
2022-07-30T12:33:42.252Z,26.20
2022-07-30T12:38:48.827Z,26.20
2022-07-30T12:43:55.147Z,26.20
2022-07-30T12:49:02.799Z,26.20
2022-07-30T12:54:24.263Z,26.30
2022-07-30T13:05:11.371Z,26.20
2022-07-30T13:10:18.786Z,26.20
2022-07-30T13:15:22.812Z,26.10
2022-07-30T13:20:27.222Z,26.20
2022-07-30T13:25:38.690Z,26.20
2022-07-30T13:30:43.434Z,26.30
2022-07-30T13:35:48.115Z,26.30
2022-07-30T13:40:51.583Z,26.40
2022-07-30T13:45:55.022Z,26.40
2022-07-30T13:51:05.880Z,26.40
2022-07-30T13:56:12.533Z,26.40
2022-07-30T14:01:18.023Z,26.40
2022-07-30T14:06:22.878Z,26.40
2022-07-30T14:11:25.995Z,26.50
2022-07-30T14:16:44.754Z,26.50
2022-07-30T14:21:50.136Z,26.50
2022-07-30T14:26:57.752Z,26.40
2022-07-30T14:32:01.327Z,26.50
2022-07-30T14:37:06.885Z,26.50
2022-07-30T14:42:12.711Z,26.50
2022-07-30T14:47:15.941Z,26.50
2022-07-30T14:52:20.331Z,26.50
2022-07-30T14:57:23.426Z,26.60
2022-07-30T15:02:26.474Z,26.50
2022-07-30T15:07:30.980Z,26.50
2022-07-30T15:12:37.740Z,26.50
2022-07-30T15:17:41.247Z,26.50
2022-07-30T15:22:45.707Z,26.50
2022-07-30T15:27:48.724Z,26.50
2022-07-30T15:32:51.790Z,26.50
2022-07-30T15:37:56.226Z,26.50
2022-07-30T15:42:59.294Z,26.50
2022-07-30T15:48:02.550Z,26.50
2022-07-30T15:53:12.557Z,26.40
2022-07-30T15:58:18.664Z,26.50
2022-07-30T16:03:21.761Z,26.50
2022-07-30T16:08:27.144Z,26.50
2022-07-30T16:13:30.328Z,26.50
2022-07-30T16:18:33.350Z,26.40
2022-07-30T16:28:48.768Z,26.40
2022-07-30T16:33:51.790Z,26.40
2022-07-30T16:38:54.810Z,26.40
2022-07-30T16:43:59.207Z,26.40
2022-07-30T16:49:02.263Z,26.50
2022-07-30T16:54:07.700Z,26.50
2022-07-30T16:59:13.962Z,26.50
2022-07-30T17:04:17.783Z,26.50
2022-07-30T17:09:20.884Z,26.50
2022-07-30T17:14:25.989Z,26.40
2022-07-30T17:19:29.072Z,26.40
2022-07-30T17:24:32.174Z,26.40
2022-07-30T17:29:48.419Z,26.40
2022-07-30T17:34:54.729Z,26.40
2022-07-30T17:40:27.823Z,26.30
2022-07-30T17:45:22.207Z,26.30
2022-07-30T17:50:25.268Z,26.20
2022-07-30T17:55:29.132Z,26.20
2022-07-30T18:00:34.861Z,26.20
2022-07-30T18:05:38.107Z,26.10
2022-07-30T18:10:41.477Z,26.00
2022-07-30T18:15:45.830Z,26.10
2022-07-30T18:20:48.882Z,26.10
2022-07-30T18:25:54.339Z,26.10
2022-07-30T18:30:59.102Z,26.10
2022-07-30T18:36:02.238Z,26.10
2022-07-30T18:41:05.453Z,26.10
2022-07-30T18:46:09.998Z,26.10
2022-07-30T18:51:14.222Z,26.10
2022-07-30T18:56:17.355Z,26.10
2022-07-30T19:01:22.829Z,26.10
2022-07-30T19:06:25.907Z,26.10
2022-07-30T19:11:28.908Z,26.10
2022-07-30T19:16:33.349Z,26.00
2022-07-30T19:21:36.480Z,26.00
2022-07-30T19:26:39.981Z,25.90
2022-07-30T19:31:45.620Z,25.80
2022-07-30T19:36:48.726Z,25.80
2022-07-30T19:41:52.013Z,25.70
2022-07-30T19:46:58.397Z,25.60
2022-07-30T19:52:10.497Z,25.40
2022-07-30T19:57:52.866Z,25.40
2022-07-30T20:02:51.847Z,25.40
2022-07-30T20:07:55.057Z,25.40
2022-07-30T20:12:59.321Z,25.20
2022-07-30T20:18:04.663Z,25.20
2022-07-30T20:23:11.654Z,25.00
2022-07-30T20:28:15.251Z,25.00
2022-07-30T20:33:35.876Z,24.60
2022-07-30T20:38:44.636Z,24.70
2022-07-30T20:43:52.484Z,24.70
2022-07-30T20:48:59.583Z,24.60
2022-07-30T20:54:03.123Z,24.60
2022-07-30T20:59:07.274Z,24.70
2022-07-30T21:04:25.337Z,24.80
2022-07-30T21:09:29.591Z,24.90
2022-07-30T21:14:52.970Z,25.00
2022-07-30T21:19:57.347Z,25.00
2022-07-30T21:25:00.500Z,25.00
2022-07-30T21:30:03.567Z,25.00
2022-07-30T21:35:09.303Z,25.10
2022-07-30T21:40:15.160Z,25.10
2022-07-30T21:45:18.452Z,25.10
2022-07-30T21:50:23.443Z,25.10
2022-07-30T21:55:26.678Z,25.00
2022-07-30T22:00:44.737Z,25.00
2022-07-30T22:05:50.217Z,25.00
2022-07-30T22:10:56.424Z,25.00
2022-07-30T22:15:59.960Z,25.00
2022-07-30T22:21:05.303Z,25.00
2022-07-30T22:26:10.073Z,25.00
2022-07-30T22:31:15.926Z,25.00
2022-07-30T22:36:24.631Z,24.90
2022-07-30T22:41:29.023Z,24.90
2022-07-30T22:46:32.250Z,24.90
2022-07-30T22:52:02.081Z,24.90
2022-07-30T22:57:04.057Z,24.80
2022-07-30T23:02:07.274Z,24.80
2022-07-30T23:12:34.462Z,24.80
2022-07-30T23:12:40.184Z,24.80
2022-07-30T23:17:43.789Z,24.70
2022-07-30T23:22:48.394Z,24.70
2022-07-30T23:27:51.975Z,24.70
2022-07-30T23:32:55.077Z,24.70
2022-07-30T23:37:59.544Z,24.60
2022-07-30T23:43:02.627Z,24.60
2022-07-30T23:48:06.110Z,24.60
2022-07-30T23:53:10.555Z,24.60
2022-07-30T23:58:13.663Z,24.60
